createdAt,value
2019-01-26T00:00:42.760Z,167.82
2019-01-26T00:03:12.246Z,168.52
2019-01-26T00:05:44.876Z,168.32
2019-01-26T00:08:16.046Z,181.18
2019-01-26T00:13:41.801Z,169.93
2019-01-26T00:16:20.997Z,176.20
2019-01-26T00:18:51.576Z,178.45
2019-01-26T00:21:22.826Z,162.35
2019-01-26T00:23:55.472Z,158.27
2019-01-26T00:26:27.925Z,175.90
2019-01-26T00:28:57.206Z,181.93
2019-01-26T00:31:28.673Z,172.72
2019-01-26T00:33:59.373Z,157.37
2019-01-26T00:36:31.345Z,178.93
2019-01-26T00:39:04.749Z,169.57
2019-01-26T00:41:40.045Z,176.25
2019-01-26T00:44:12.626Z,157.05
2019-01-26T00:46:42.295Z,181.22
2019-01-26T00:49:13.273Z,149.53
2019-01-26T00:51:50.762Z,153.02
2019-01-26T00:54:23.862Z,154.78
2019-01-26T00:56:58.306Z,185.52
2019-01-26T00:59:28.754Z,165.00
2019-01-26T01:01:58.071Z,177.65
2019-01-26T01:04:29.242Z,174.82
2019-01-26T01:07:04.743Z,202.25
2019-01-26T01:09:35.192Z,185.55
2019-01-26T01:12:07.263Z,175.55
2019-01-26T01:14:39.401Z,203.32
2019-01-26T01:17:11.415Z,184.28
2019-01-26T01:19:51.590Z,214.17
2019-01-26T01:22:23.558Z,178.62
2019-01-26T01:27:57.574Z,202.53
2019-01-26T01:30:22.268Z,209.25
2019-01-26T01:32:53.226Z,211.65
2019-01-26T01:35:27.297Z,223.60
2019-01-26T01:38:00.288Z,245.73
2019-01-26T01:40:32.138Z,241.93
2019-01-26T01:43:02.910Z,210.23
2019-01-26T01:45:37.426Z,209.92
2019-01-26T01:48:07.817Z,225.45
2019-01-26T01:50:37.307Z,206.47
2019-01-26T01:53:11.170Z,232.62
2019-01-26T01:55:40.591Z,257.73
2019-01-26T01:58:12.157Z,236.22
2019-01-26T02:00:47.013Z,239.48
2019-01-26T02:03:21.698Z,257.70
2019-01-26T02:05:51.223Z,265.55
2019-01-26T02:08:20.536Z,205.50
2019-01-26T02:10:49.828Z,238.52
2019-01-26T02:13:22.022Z,266.75
2019-01-26T02:15:53.397Z,239.38
2019-01-26T02:18:22.891Z,270.88
2019-01-26T02:20:52.279Z,297.72
2019-01-26T02:23:29.577Z,339.57
2019-01-26T02:25:59.120Z,289.65
2019-01-26T02:28:30.485Z,296.77
2019-01-26T02:31:03.086Z,355.92
2019-01-26T02:33:32.361Z,325.07
2019-01-26T02:36:01.898Z,287.02
2019-01-26T02:38:34.860Z,282.17
2019-01-26T02:41:04.264Z,304.68
2019-01-26T02:43:33.746Z,273.27
2019-01-26T02:46:04.065Z,350.55
2019-01-26T02:48:33.534Z,283.32
2019-01-26T02:51:02.945Z,249.02
2019-01-26T02:53:32.306Z,293.95
2019-01-26T02:56:02.175Z,301.10
2019-01-26T02:58:32.459Z,303.23
2019-01-26T03:01:01.751Z,282.60
2019-01-26T03:03:35.385Z,274.18
2019-01-26T03:06:04.825Z,281.10
2019-01-26T03:08:35.183Z,280.85
2019-01-26T03:11:04.479Z,299.27
2019-01-26T03:13:33.835Z,322.10
2019-01-26T03:16:03.200Z,295.48
2019-01-26T03:18:32.493Z,277.62
2019-01-26T03:21:06.242Z,316.75
2019-01-26T03:23:35.735Z,296.82
2019-01-26T03:26:05.330Z,330.67
2019-01-26T03:28:34.715Z,292.45
2019-01-26T03:31:05.730Z,293.85
2019-01-26T03:33:36.050Z,311.43
2019-01-26T03:36:05.299Z,290.25
2019-01-26T03:38:34.610Z,314.42
2019-01-26T03:41:05.114Z,290.82
2019-01-26T03:43:35.590Z,260.25
2019-01-26T03:46:05.025Z,303.42
2019-01-26T03:48:34.619Z,314.90
2019-01-26T03:51:04.050Z,299.45
2019-01-26T03:53:33.355Z,306.43
2019-01-26T03:56:02.640Z,275.32
2019-01-26T03:58:33.123Z,254.35
2019-01-26T04:01:02.496Z,270.70
2019-01-26T04:03:31.774Z,245.25
2019-01-26T04:06:01.084Z,260.15
2019-01-26T04:08:30.366Z,252.97
2019-01-26T04:10:59.697Z,245.67
2019-01-26T04:13:28.992Z,284.15
2019-01-26T04:15:58.378Z,261.77
2019-01-26T04:18:27.802Z,276.60
2019-01-26T04:20:57.117Z,235.50
2019-01-26T04:23:26.421Z,231.02
2019-01-26T04:25:55.714Z,256.23
2019-01-26T04:28:24.986Z,270.85
2019-01-26T04:30:54.290Z,235.57
2019-01-26T04:33:23.810Z,242.65
2019-01-26T04:35:53.110Z,250.47
2019-01-26T04:38:22.518Z,218.00
2019-01-26T04:40:51.818Z,229.72
2019-01-26T04:43:21.122Z,265.65
2019-01-26T04:45:50.415Z,222.12
2019-01-26T04:48:19.775Z,260.20
2019-01-26T04:50:50.140Z,231.87
2019-01-26T04:53:19.731Z,232.60
2019-01-26T04:55:49.193Z,240.62
2019-01-26T04:58:18.594Z,225.68
2019-01-26T05:00:47.962Z,233.97
2019-01-26T05:03:17.366Z,268.63
2019-01-26T05:05:46.742Z,235.60
2019-01-26T05:08:16.054Z,275.57
2019-01-26T05:10:45.376Z,279.98
2019-01-26T05:13:14.734Z,240.15
2019-01-26T05:15:44.074Z,260.52
2019-01-26T05:18:13.370Z,257.92
2019-01-26T05:20:42.698Z,266.77
2019-01-26T05:23:11.974Z,261.40
2019-01-26T05:25:41.286Z,212.15
2019-01-26T05:28:14.963Z,306.80
2019-01-26T05:30:44.286Z,277.30
2019-01-26T05:33:13.654Z,299.60
2019-01-26T05:35:42.999Z,261.05
2019-01-26T05:38:12.307Z,267.27
2019-01-26T05:40:41.959Z,260.75
2019-01-26T05:43:12.230Z,264.80
2019-01-26T05:45:41.558Z,262.57
2019-01-26T05:48:10.891Z,272.65
2019-01-26T05:50:40.194Z,248.47
2019-01-26T05:53:10.573Z,335.60
2019-01-26T05:55:39.891Z,293.55
2019-01-26T05:58:10.380Z,267.57
2019-01-26T06:00:39.690Z,320.40
2019-01-26T06:03:08.982Z,311.50
2019-01-26T06:05:38.286Z,340.30
2019-01-26T06:08:12.156Z,277.73
2019-01-26T06:10:44.464Z,330.12
2019-01-26T06:13:33.153Z,285.02
2019-01-26T06:16:02.661Z,355.20
2019-01-26T06:18:34.449Z,404.00
2019-01-26T06:21:03.975Z,298.90
2019-01-26T06:23:33.860Z,302.45
2019-01-26T06:26:06.128Z,296.27
2019-01-26T06:28:35.604Z,340.00
2019-01-26T06:31:08.982Z,353.55
2019-01-26T06:33:38.481Z,325.45
2019-01-26T06:36:07.792Z,339.77
2019-01-26T06:38:37.197Z,312.63
2019-01-26T06:41:06.494Z,270.45
2019-01-26T06:43:38.540Z,286.98
2019-01-26T06:46:07.878Z,314.98
2019-01-26T06:48:37.275Z,277.02
2019-01-26T06:51:06.650Z,279.68
2019-01-26T06:53:36.059Z,285.57
2019-01-26T06:56:05.283Z,277.70
2019-01-26T06:58:34.666Z,287.93
2019-01-26T07:01:03.991Z,306.85
2019-01-26T07:03:33.419Z,279.95
2019-01-26T07:06:11.264Z,269.48
2019-01-26T07:08:40.569Z,283.85
2019-01-26T07:11:10.046Z,291.42
2019-01-26T07:13:39.325Z,294.82
2019-01-26T07:16:11.037Z,274.18
2019-01-26T07:18:40.385Z,282.17
2019-01-26T07:21:10.038Z,257.35
2019-01-26T07:23:39.345Z,256.73
2019-01-26T07:26:11.795Z,256.65
2019-01-26T07:28:41.446Z,276.45
2019-01-26T07:31:40.366Z,226.37
2019-01-26T07:34:09.730Z,210.00
2019-01-26T07:36:38.954Z,194.80
2019-01-26T07:39:09.972Z,216.15
2019-01-26T07:41:39.285Z,218.50
2019-01-26T07:44:08.549Z,215.87
2019-01-26T07:46:37.909Z,217.80
2019-01-26T07:49:07.256Z,204.97
2019-01-26T07:51:36.674Z,190.80
2019-01-26T07:54:06.185Z,187.00
2019-01-26T07:56:35.928Z,187.30
2019-01-26T07:59:05.354Z,162.40
2019-01-26T08:01:34.645Z,157.27
2019-01-26T08:04:04.106Z,154.27
2019-01-26T08:06:33.478Z,141.15
2019-01-26T08:09:04.563Z,125.60
2019-01-26T08:11:33.951Z,142.70
2019-01-26T08:14:03.306Z,128.07
2019-01-26T08:16:32.659Z,122.22
2019-01-26T08:19:02.127Z,116.37
2019-01-26T08:21:31.466Z,99.72
2019-01-26T08:24:00.822Z,106.17
2019-01-26T08:26:30.121Z,96.28
2019-01-26T08:28:59.473Z,105.67
2019-01-26T08:31:28.891Z,95.25
2019-01-26T08:33:58.294Z,92.15
2019-01-26T08:36:27.635Z,83.03
2019-01-26T08:38:56.998Z,86.45
2019-01-26T08:41:26.246Z,73.60
2019-01-26T08:43:55.646Z,89.83
2019-01-26T08:46:24.984Z,71.33
2019-01-26T08:48:54.534Z,64.92
2019-01-26T08:51:24.059Z,70.65
2019-01-26T08:53:53.462Z,63.20
2019-01-26T08:56:22.859Z,64.65
2019-01-26T08:58:52.194Z,56.05
2019-01-26T09:01:21.639Z,55.48
2019-01-26T09:03:59.537Z,52.45
2019-01-26T09:06:47.957Z,45.50
2019-01-26T09:09:17.326Z,59.67
2019-01-26T09:11:47.626Z,44.58
2019-01-26T09:14:17.152Z,45.75
2019-01-26T09:16:46.410Z,57.20
2019-01-26T09:19:15.739Z,56.85
2019-01-26T09:21:45.058Z,49.53
2019-01-26T09:24:14.350Z,46.25
2019-01-26T09:26:43.648Z,54.35
2019-01-26T09:29:12.945Z,48.23
2019-01-26T09:31:42.622Z,53.90
2019-01-26T09:34:11.960Z,50.38
2019-01-26T09:36:41.342Z,52.23
2019-01-26T09:39:11.689Z,45.55
2019-01-26T09:41:40.994Z,48.83
2019-01-26T09:44:10.764Z,45.30
2019-01-26T09:46:40.270Z,46.65
2019-01-26T09:49:09.691Z,38.40
2019-01-26T09:51:38.998Z,51.70
2019-01-26T09:54:08.419Z,48.35
2019-01-26T09:56:37.696Z,53.10
2019-01-26T09:59:07.074Z,51.90
2019-01-26T10:01:36.422Z,46.05
2019-01-26T10:04:06.178Z,40.73
2019-01-26T10:06:35.534Z,41.42
2019-01-26T10:09:09.754Z,34.48
2019-01-26T10:11:39.082Z,46.42
2019-01-26T10:14:08.431Z,40.25
2019-01-26T10:16:38.028Z,36.13
2019-01-26T10:19:07.376Z,37.85
2019-01-26T10:21:36.638Z,32.15
2019-01-26T10:24:05.979Z,35.40
2019-01-26T10:26:35.387Z,29.23
2019-01-26T10:29:04.650Z,24.82
2019-01-26T10:31:33.937Z,26.42
2019-01-26T10:34:03.440Z,31.07
2019-01-26T10:36:53.872Z,26.75
2019-01-26T10:39:23.210Z,22.87
2019-01-26T10:42:03.838Z,20.85
2019-01-26T10:44:34.166Z,23.73
2019-01-26T10:47:03.442Z,17.20
2019-01-26T10:49:32.709Z,20.90
2019-01-26T10:52:02.586Z,18.92
2019-01-26T10:54:31.853Z,19.65
2019-01-26T10:57:01.308Z,22.52
2019-01-26T10:59:30.588Z,16.95
2019-01-26T11:02:00.174Z,14.85
2019-01-26T11:04:29.674Z,12.05
2019-01-26T11:06:59.010Z,10.90
2019-01-26T11:09:28.271Z,11.75
2019-01-26T11:11:57.678Z,14.85
2019-01-26T11:14:27.219Z,10.00
2019-01-26T11:16:56.543Z,13.30
2019-01-26T11:19:26.050Z,12.88
2019-01-26T11:21:55.359Z,11.40
2019-01-26T11:24:24.689Z,13.18
2019-01-26T11:26:54.018Z,13.60
2019-01-26T11:29:24.150Z,11.65
2019-01-26T11:31:53.549Z,11.45
2019-01-26T11:34:22.854Z,12.78
2019-01-26T11:36:52.209Z,11.48
2019-01-26T11:39:21.557Z,15.45
2019-01-26T11:41:51.106Z,10.60
2019-01-26T11:44:20.462Z,10.82
2019-01-26T11:46:55.954Z,11.25
2019-01-26T11:49:25.353Z,9.43
2019-01-26T11:52:12.045Z,11.80
2019-01-26T11:55:13.393Z,14.55
2019-01-26T11:57:42.661Z,11.18
2019-01-26T12:00:46.514Z,13.65
2019-01-26T12:03:31.545Z,11.12
2019-01-26T12:06:06.072Z,14.15
2019-01-26T12:08:35.614Z,13.32
2019-01-26T12:11:05.058Z,14.40
2019-01-26T12:13:34.383Z,9.68
2019-01-26T12:16:03.646Z,9.58
2019-01-26T12:18:33.001Z,9.15
2019-01-26T12:21:02.474Z,10.28
2019-01-26T12:23:31.745Z,10.48
2019-01-26T12:26:01.108Z,7.35
2019-01-26T12:28:30.863Z,7.90
2019-01-26T12:31:00.498Z,6.60
2019-01-26T12:33:29.955Z,10.53
2019-01-26T12:35:59.302Z,7.95
2019-01-26T12:38:29.025Z,6.85
2019-01-26T12:40:58.343Z,9.03
2019-01-26T12:43:27.777Z,6.47
2019-01-26T12:45:57.130Z,6.42
2019-01-26T12:48:26.958Z,5.90
2019-01-26T12:50:56.315Z,10.88
2019-01-26T12:53:25.630Z,8.28
2019-01-26T12:55:55.372Z,6.10
2019-01-26T12:58:24.618Z,9.20
2019-01-26T13:00:53.967Z,8.65
2019-01-26T13:03:23.346Z,8.10
2019-01-26T13:05:53.934Z,6.92
2019-01-26T13:08:24.538Z,10.23
2019-01-26T13:13:20.198Z,7.05
2019-01-26T13:15:49.806Z,7.58
2019-01-26T13:18:19.253Z,8.50
2019-01-26T13:20:48.770Z,9.83
2019-01-26T13:23:18.412Z,9.25
2019-01-26T13:25:47.827Z,9.40
2019-01-26T13:28:17.140Z,10.25
2019-01-26T13:30:46.568Z,9.65
2019-01-26T13:33:15.884Z,9.78
2019-01-26T13:35:45.230Z,10.10
2019-01-26T13:38:14.715Z,10.95
2019-01-26T13:40:44.036Z,11.43
2019-01-26T13:43:13.410Z,10.15
2019-01-26T13:45:42.898Z,11.15
2019-01-26T13:48:12.406Z,11.33
2019-01-26T13:50:41.706Z,11.68
2019-01-26T13:53:11.203Z,13.00
2019-01-26T13:55:40.493Z,12.98
2019-01-26T13:58:10.160Z,14.58
2019-01-26T14:00:39.467Z,15.15
2019-01-26T14:03:08.949Z,14.00
2019-01-26T14:05:41.347Z,15.55
2019-01-26T14:08:10.692Z,18.80
2019-01-26T14:10:40.271Z,16.87
2019-01-26T14:13:09.710Z,17.75
2019-01-26T14:15:39.152Z,18.05
2019-01-26T14:18:08.518Z,16.55
2019-01-26T14:20:37.934Z,21.07
2019-01-26T14:23:07.514Z,18.17
2019-01-26T14:25:36.958Z,18.30
2019-01-26T14:28:06.508Z,17.20
2019-01-26T14:30:53.065Z,15.88
2019-01-26T14:33:23.723Z,19.02
2019-01-26T14:35:53.167Z,18.23
2019-01-26T14:38:23.071Z,18.48
2019-01-26T14:40:52.475Z,20.30
2019-01-26T14:43:24.197Z,16.75
2019-01-26T14:45:53.447Z,18.82
2019-01-26T14:48:23.522Z,18.60
2019-01-26T14:50:57.282Z,22.17
2019-01-26T14:53:32.354Z,16.82
2019-01-26T14:56:03.230Z,18.48
2019-01-26T14:58:36.686Z,15.53
2019-01-26T15:01:12.126Z,16.75
2019-01-26T15:03:45.874Z,18.52
2019-01-26T15:06:21.311Z,17.02
2019-01-26T15:16:21.869Z,11.30
2019-01-26T15:18:55.842Z,15.32
2019-01-26T15:21:42.060Z,13.78
2019-01-26T15:24:26.160Z,14.90
2019-01-26T15:27:09.447Z,13.35
2019-01-26T15:29:58.210Z,11.60
2019-01-26T15:32:41.437Z,12.05
2019-01-26T15:35:20.079Z,12.03
2019-01-26T15:38:08.404Z,10.68
2019-01-26T15:40:45.592Z,13.60
2019-01-26T15:43:38.380Z,10.05
2019-01-26T15:46:18.539Z,11.05
2019-01-26T15:52:07.774Z,10.65
2019-01-26T15:55:29.426Z,10.90
2019-01-26T16:02:24.802Z,12.68
2019-01-26T16:14:14.215Z,13.80
2019-01-26T16:17:35.634Z,12.25
2019-01-26T16:20:06.246Z,14.70
2019-01-26T16:22:39.035Z,14.05
2019-01-26T16:25:09.246Z,16.10
2019-01-26T16:27:39.794Z,14.87
2019-01-26T16:30:13.029Z,13.50
2019-01-26T16:33:22.503Z,13.68
2019-01-26T16:36:59.006Z,12.80
2019-01-26T16:39:33.039Z,12.78
2019-01-26T16:42:03.553Z,10.70
2019-01-26T16:44:34.327Z,8.90
2019-01-26T16:47:06.245Z,10.50
2019-01-26T16:49:44.930Z,6.67
2019-01-26T16:52:16.273Z,8.50
2019-01-26T16:54:45.508Z,8.53
2019-01-26T16:57:21.029Z,7.45
2019-01-26T16:59:52.529Z,7.67
2019-01-26T17:02:23.008Z,8.98
2019-01-26T17:04:52.479Z,9.63
2019-01-26T17:07:21.799Z,8.70
2019-01-26T17:09:51.248Z,8.25
2019-01-26T17:12:21.930Z,7.70
2019-01-26T17:14:53.753Z,7.25
2019-01-26T17:17:23.110Z,8.40
2019-01-26T17:19:52.614Z,9.25
2019-01-26T17:22:21.905Z,8.83
2019-01-26T17:24:53.274Z,8.53
2019-01-26T17:27:24.743Z,10.70
2019-01-26T17:29:55.310Z,10.13
2019-01-26T17:32:27.317Z,9.80
2019-01-26T17:34:56.742Z,10.58
2019-01-26T17:37:28.263Z,11.22
2019-01-26T17:40:04.297Z,11.15
2019-01-26T17:42:43.018Z,11.15
2019-01-26T17:45:13.754Z,12.82
2019-01-26T17:47:43.146Z,10.80
2019-01-26T17:50:16.468Z,11.90
2019-01-26T17:52:47.291Z,11.05
2019-01-26T17:55:17.224Z,10.60
2019-01-26T17:57:46.554Z,11.57
2019-01-26T18:01:05.704Z,11.08
2019-01-26T18:03:37.099Z,10.18
2019-01-26T18:06:08.662Z,9.25
2019-01-26T18:08:37.986Z,10.28
2019-01-26T18:11:36.859Z,8.73
2019-01-26T18:14:08.718Z,9.00
2019-01-26T18:16:38.046Z,9.23
2019-01-26T18:19:07.466Z,7.70
2019-01-26T18:21:36.861Z,9.10
2019-01-26T18:24:06.250Z,9.23
2019-01-26T18:26:35.778Z,8.80
2019-01-26T18:29:05.171Z,9.05
2019-01-26T18:31:34.586Z,8.80
2019-01-26T18:34:03.955Z,8.15
2019-01-26T18:36:33.219Z,8.25
2019-01-26T18:39:02.637Z,7.67
2019-01-26T18:41:31.934Z,7.30
2019-01-26T18:44:01.305Z,7.05
2019-01-26T18:46:30.998Z,7.08
2019-01-26T18:49:00.454Z,6.08
2019-01-26T18:51:30.015Z,6.15
2019-01-26T18:53:59.467Z,5.35
2019-01-26T18:56:28.953Z,4.90
2019-01-26T18:58:58.362Z,4.83
2019-01-26T19:01:27.737Z,4.78
2019-01-26T19:04:19.065Z,5.35
2019-01-26T19:06:48.598Z,5.55
2019-01-26T19:09:18.066Z,4.97
2019-01-26T19:11:47.320Z,5.00
2019-01-26T19:14:16.581Z,5.85
2019-01-26T19:16:45.917Z,3.98
2019-01-26T19:19:16.866Z,4.55
2019-01-26T19:21:46.169Z,4.53
2019-01-26T19:24:15.425Z,4.70
2019-01-26T19:26:44.775Z,4.75
2019-01-26T19:29:15.180Z,4.67
2019-01-26T19:31:44.472Z,5.15
2019-01-26T19:34:13.780Z,5.30
2019-01-26T19:36:43.071Z,4.75
2019-01-26T19:39:12.611Z,5.58
2019-01-26T19:41:41.998Z,4.67
2019-01-26T19:44:11.304Z,5.90
2019-01-26T19:46:40.560Z,6.08
2019-01-26T19:49:14.672Z,5.78
2019-01-26T19:51:44.079Z,5.60
2019-01-26T19:54:13.434Z,5.47
2019-01-26T19:56:42.815Z,5.55
2019-01-26T19:59:12.181Z,5.20
2019-01-26T20:01:43.780Z,5.17
2019-01-26T20:04:15.492Z,5.53
2019-01-26T20:06:44.846Z,6.62
2019-01-26T20:09:14.983Z,4.78
2019-01-26T20:11:44.262Z,5.58
2019-01-26T20:14:13.803Z,5.85
2019-01-26T20:16:43.258Z,5.40
2019-01-26T20:19:12.601Z,6.50
2019-01-26T20:21:42.091Z,5.03
2019-01-26T20:24:11.505Z,5.47
2019-01-26T20:26:40.899Z,5.67
2019-01-26T20:29:10.351Z,5.40
2019-01-26T20:31:39.688Z,5.17
2019-01-26T20:34:09.020Z,5.60
2019-01-26T20:36:38.433Z,6.20
2019-01-26T20:39:09.607Z,5.67
2019-01-26T20:41:38.947Z,5.70
2019-01-26T20:44:08.253Z,5.67
2019-01-26T20:46:37.703Z,6.50
2019-01-26T20:49:10.843Z,6.45
2019-01-26T20:51:50.331Z,6.55
2019-01-26T20:54:39.965Z,7.33
2019-01-26T20:57:10.214Z,7.00
2019-01-26T21:00:22.889Z,7.90
2019-01-26T21:02:59.337Z,6.67
2019-01-26T21:05:33.540Z,8.38
2019-01-26T21:08:10.523Z,6.87
2019-01-26T21:10:43.636Z,7.30
2019-01-26T21:13:18.139Z,6.67
2019-01-26T21:15:49.741Z,6.87
2019-01-26T21:18:19.777Z,7.90
2019-01-26T21:20:49.142Z,6.83
2019-01-26T21:23:18.448Z,6.92
2019-01-26T21:25:50.133Z,7.85
2019-01-26T21:28:19.506Z,8.23
2019-01-26T21:30:48.938Z,7.25
2019-01-26T21:33:19.211Z,7.80
2019-01-26T21:35:52.267Z,7.60
2019-01-26T21:38:21.608Z,7.75
2019-01-26T21:40:51.481Z,7.80
2019-01-26T21:43:20.883Z,7.47
2019-01-26T21:45:53.448Z,6.80
2019-01-26T21:48:26.861Z,7.17
2019-01-26T21:51:00.765Z,6.45
2019-01-26T21:53:30.214Z,6.15
2019-01-26T21:56:02.640Z,6.53
2019-01-26T21:58:38.910Z,5.67
2019-01-26T22:01:16.077Z,6.53
2019-01-26T22:03:48.711Z,5.60
2019-01-26T22:06:21.050Z,6.15
2019-01-26T22:08:58.800Z,5.37
2019-01-26T22:11:29.429Z,5.00
2019-01-26T22:13:58.885Z,5.00
2019-01-26T22:16:29.858Z,5.50
2019-01-26T22:19:01.562Z,5.30
2019-01-26T22:21:34.230Z,5.80
2019-01-26T22:24:04.018Z,6.20
2019-01-26T22:26:33.321Z,6.72
2019-01-26T22:29:02.575Z,6.45
2019-01-26T22:31:32.051Z,7.75
2019-01-26T22:34:04.717Z,8.10
2019-01-26T22:36:34.076Z,9.50
2019-01-26T22:39:08.420Z,9.75
2019-01-26T22:41:37.731Z,9.40
2019-01-26T22:44:08.697Z,9.00
2019-01-26T22:46:38.183Z,10.03
2019-01-26T22:49:13.623Z,9.55
2019-01-26T22:51:53.382Z,11.45
2019-01-26T22:54:27.050Z,12.75
2019-01-26T22:57:12.842Z,12.07
2019-01-26T22:59:49.325Z,12.37
2019-01-26T23:02:48.269Z,17.57
2019-01-26T23:06:19.842Z,12.73
2019-01-26T23:08:53.003Z,13.00
2019-01-26T23:11:49.995Z,12.00
2019-01-26T23:14:45.937Z,10.93
2019-01-26T23:17:55.039Z,11.08
2019-01-26T23:20:41.354Z,12.15
2019-01-26T23:23:37.490Z,10.15
2019-01-26T23:26:56.887Z,9.53
2019-01-26T23:30:20.483Z,8.45
2019-01-26T23:32:49.924Z,9.68
2019-01-26T23:35:19.242Z,8.23
2019-01-26T23:37:48.607Z,8.78
2019-01-26T23:40:18.914Z,7.53
2019-01-26T23:42:48.439Z,7.42
2019-01-26T23:45:17.794Z,6.37
2019-01-26T23:47:47.178Z,7.17
2019-01-26T23:50:16.459Z,7.40
2019-01-26T23:52:46.078Z,7.45
2019-01-26T23:55:15.610Z,6.40
2019-01-26T23:57:49.707Z,5.17
